| time (UTC) | temp F | wind direction | speed MPH | gust MPH | rain 1hr in | rain 24hr in | rain mn in | humidity % | barometer mb |
| 20260504044548 | 60 | 222 | 2.0 | 6.0 | 0.00 | 0.00 | 0.00 | 52 | 1005.7 |
| 20260504043042 | 60 | 218 | 3.0 | 6.0 | 0.00 | 0.00 | 0.00 | 52 | 1005.8 |
| 20260504011533 | 68 | 220 | 1.0 | 7.0 | 0.00 | 0.00 | 0.00 | 43 | 1005.1 |
| 20260504010031 | 69 | 212 | 6.0 | 11.0 | 0.00 | 0.00 | 0.00 | 42 | 1004.9 |
| 20260504004536 | 70 | 233 | 7.0 | 13.0 | 0.00 | 0.00 | 0.00 | 41 | 1004.9 |
| 20260504003034 | 70 | 201 | 8.0 | 17.0 | 0.00 | 0.00 | 0.00 | 40 | 1004.8 |
| 20260504001529 | 71 | 261 | 7.0 | 17.0 | 0.00 | 0.00 | 0.00 | 40 | 1004.8 |
| 20260504000028 | 72 | 197 | 7.0 | 19.0 | 0.00 | 0.00 | 0.00 | 40 | 1004.7 |
| 20260503234538 | 72 | 202 | 11.0 | 20.0 | 0.00 | 0.00 | 0.00 | 40 | 1004.7 |
| 20260503233025 | 71 | 226 | 9.0 | 19.0 | 0.00 | 0.00 | 0.00 | 41 | 1004.8 |
| 20260503231524 | 71 | 237 | 11.0 | 19.0 | 0.00 | 0.00 | 0.00 | 41 | 1005.0 |
| 20260503230022 | 72 | 225 | 10.0 | 23.0 | 0.00 | 0.00 | 0.00 | 42 | 1005.2 |
| 20260503224521 | 72 | 205 | 10.0 | 20.0 | 0.00 | 0.00 | 0.00 | 41 | 1005.0 |
| 20260503223023 | 72 | 195 | 14.0 | 25.0 | 0.00 | 0.00 | 0.00 | 40 | 1005.1 |
| 20260503221518 | 72 | 222 | 11.0 | 25.0 | 0.00 | 0.00 | 0.00 | 38 | 1005.1 |
| 20260503220018 | 73 | 210 | 12.0 | 23.0 | 0.00 | 0.00 | 0.00 | 38 | 1005.1 |
| 20260503214517 | 73 | 260 | 13.0 | 22.0 | 0.00 | 0.00 | 0.00 | 38 | 1005.2 |
| 20260503213016 | 73 | 202 | 13.0 | 21.0 | 0.00 | 0.00 | 0.00 | 39 | 1005.1 |
| 20260503211513 | 73 | 226 | 9.0 | 19.0 | 0.00 | 0.00 | 0.00 | 38 | 1005.4 |
| 20260503210012 | 73 | 212 | 12.0 | 22.0 | 0.00 | 0.00 | 0.00 | 38 | 1005.6 |
| 20260503204510 | 72 | 249 | 10.0 | 24.0 | 0.00 | 0.00 | 0.00 | 39 | 1005.8 |
| 20260503203011 | 72 | 267 | 10.0 | 25.0 | 0.00 | 0.00 | 0.00 | 39 | 1005.9 |
| 20260503201505 | 71 | 197 | 9.0 | 22.0 | 0.00 | 0.00 | 0.00 | 40 | 1006.0 |
| 20260503200002 | 70 | 212 | 8.0 | 17.0 | 0.00 | 0.00 | 0.00 | 42 | 1006.2 |
| 20260503194600 | 70 | 226 | 10.0 | 22.0 | 0.00 | 0.00 | 0.00 | 42 | 1006.5 |
| 20260503193100 | 70 | 257 | 9.0 | 22.0 | 0.00 | 0.00 | 0.00 | 43 | 1006.7 |
| 20260503191612 | 69 | 207 | 14.0 | 23.0 | 0.00 | 0.00 | 0.00 | 41 | 1006.8 |
| 20260503190051 | 69 | 170 | 10.0 | 24.0 | 0.00 | 0.00 | 0.00 | 41 | 1006.8 |
| 20260503184556 | 69 | 192 | 13.0 | 22.0 | 0.00 | 0.00 | 0.00 | 44 | 1007.0 |
| 20260503183100 | 68 | 225 | 11.0 | 21.0 | 0.00 | 0.00 | 0.00 | 44 | 1007.3 |
| 20260503181543 | 67 | 206 | 13.0 | 22.0 | 0.00 | 0.00 | 0.00 | 43 | 1007.6 |
| 20260503180044 | 66 | 240 | 12.0 | 24.0 | 0.00 | 0.00 | 0.00 | 47 | 1007.6 |
| 20260503174536 | 65 | 220 | 14.0 | 24.0 | 0.00 | 0.00 | 0.00 | 46 | 1008.0 |
| 20260503173059 | 64 | 214 | 16.0 | 27.0 | 0.00 | 0.00 | 0.00 | 45 | 1008.4 |
| 20260503171529 | 64 | 216 | 12.0 | 26.0 | 0.00 | 0.00 | 0.00 | 45 | 1008.5 |
| 20260503081511 | 49 | 170 | 9.0 | 17.0 | 0.00 | 0.00 | 0.00 | 57 | 1014.3 |
| 20260503071502 | 50 | 187 | 9.0 | 16.0 | 0.00 | 0.00 | 0.00 | 54 | 1014.5 |
| 20260503070109 | 50 | 206 | 8.0 | 13.0 | 0.00 | 0.00 | 0.00 | 53 | 1014.5 |